Time;durP1;ratioP1;P1;durP2;ratioP2;P2;SDS_P1;SDS_P2;PMS_P1;PMS_P2;Temp;Humidity;BMP_temperature;BMP_pressure;BME280_temperature;BME280_humidity;BME280_pressure;Samples;Min_cycle;Max_cycle;Signal;HPM_P1;HPM_P2
2022/03/17 00:00:54;;;;;;;25.17;15.23;;;11.60;99.90;;;;;;5071562;28;20205;-61
2022/03/17 00:03:20;;;;;;;24.50;16.27;;;11.60;99.90;;;;;;5069164;28;20274;-62
2022/03/17 00:05:47;;;;;;;25.00;17.23;;;11.60;99.90;;;;;;5071402;28;20229;-62
2022/03/17 00:08:14;;;;;;;24.40;17.00;;;11.60;99.90;;;;;;5070571;28;20266;-61
2022/03/17 00:10:41;;;;;;;26.03;16.63;;;11.60;99.90;;;;;;5070923;28;20225;-62
2022/03/17 00:13:09;;;;;;;25.50;15.70;;;11.60;99.90;;;;;;5071056;28;20258;-61
2022/03/17 00:15:38;;;;;;;25.23;16.47;;;11.60;99.90;;;;;;5071191;28;20287;-61
2022/03/17 00:18:05;;;;;;;23.63;15.80;;;11.60;99.90;;;;;;5071653;28;20292;-62
2022/03/17 00:20:32;;;;;;;23.83;16.57;;;11.60;99.90;;;;;;5069866;28;20875;-62
2022/03/17 00:22:59;;;;;;;24.77;16.03;;;11.60;99.90;;;;;;5070957;28;20266;-62
2022/03/17 00:25:29;;;;;;;27.17;17.07;;;11.60;99.90;;;;;;5071065;28;20221;-61
2022/03/17 00:27:55;;;;;;;25.33;16.13;;;11.60;99.90;;;;;;5074774;28;20273;-62
2022/03/17 00:30:24;;;;;;;24.67;16.90;;;11.60;99.90;;;;;;5075033;28;20269;-61
2022/03/17 00:32:50;;;;;;;25.07;16.47;;;11.60;99.90;;;;;;5074563;28;20205;-61
2022/03/17 00:38:02;;;;;;;24.20;15.80;;;11.60;99.90;;;;;;5074588;28;20208;-62
2022/03/17 00:40:29;;;;;;;27.10;16.43;;;11.70;99.90;;;;;;5073114;28;20258;-62
2022/03/17 00:42:56;;;;;;;24.43;17.10;;;11.60;99.90;;;;;;5074853;28;20201;-62
2022/03/17 00:45:24;;;;;;;27.77;16.43;;;11.60;99.90;;;;;;5074001;28;20738;-61
2022/03/17 00:47:51;;;;;;;25.57;16.27;;;11.60;99.90;;;;;;5074314;28;20304;-63
2022/03/17 00:50:18;;;;;;;23.43;15.30;;;11.60;99.90;;;;;;5074456;28;20221;-62
2022/03/17 00:52:45;;;;;;;24.97;16.80;;;11.60;99.90;;;;;;5074098;28;20252;-62
2022/03/17 00:55:11;;;;;;;26.60;17.83;;;11.60;99.90;;;;;;5074481;28;20286;-62
2022/03/17 00:57:39;;;;;;;25.93;16.00;;;11.50;99.90;;;;;;5074390;28;20209;-62
2022/03/17 01:00:08;;;;;;;26.37;17.03;;;11.50;99.90;;;;;;5072621;28;20258;-62
2022/03/17 01:02:36;;;;;;;24.47;16.17;;;11.50;99.90;;;;;;5074303;28;20572;-62
2022/03/17 01:05:04;;;;;;;24.87;17.00;;;11.50;99.90;;;;;;5073796;28;20228;-62
2022/03/17 01:07:32;;;;;;;25.47;17.07;;;11.50;99.90;;;;;;5073698;28;20239;-62
2022/03/17 01:09:59;;;;;;;23.97;15.53;;;11.40;99.90;;;;;;5073885;28;20247;-62
2022/03/17 01:12:26;;;;;;;25.67;16.93;;;11.40;99.90;;;;;;5074026;28;20208;-62
2022/03/17 01:14:52;;;;;;;23.30;16.17;;;11.40;99.90;;;;;;5074242;28;20228;-62
2022/03/17 01:17:19;;;;;;;23.67;16.67;;;11.40;99.90;;;;;;5071525;28;20200;-62
2022/03/17 01:19:47;;;;;;;25.30;16.07;;;11.30;99.90;;;;;;5073711;28;20216;-61
2022/03/17 01:22:14;;;;;;;23.67;16.37;;;11.40;99.90;;;;;;5073736;28;20752;-62
2022/03/17 01:24:40;;;;;;;23.20;15.63;;;11.30;99.90;;;;;;5073849;28;20606;-62
2022/03/17 01:27:07;;;;;;;24.37;15.93;;;11.30;99.90;;;;;;5073341;28;20212;-62
2022/03/17 01:29:34;;;;;;;23.57;16.87;;;11.40;99.90;;;;;;5073596;28;20209;-60
2022/03/17 01:32:01;;;;;;;25.30;16.87;;;11.40;99.90;;;;;;5073543;28;20229;-61
2022/03/17 01:34:28;;;;;;;23.47;15.73;;;11.30;99.90;;;;;;5073987;28;20224;-62
2022/03/17 01:36:56;;;;;;;28.27;18.37;;;11.30;99.90;;;;;;5071089;28;20250;-62
2022/03/17 01:39:23;;;;;;;24.67;16.70;;;11.30;99.90;;;;;;5073823;28;20201;-62
2022/03/17 01:41:49;;;;;;;23.23;16.27;;;11.30;99.90;;;;;;5073552;28;20939;-61
2022/03/17 01:44:16;;;;;;;24.17;16.43;;;11.30;99.90;;;;;;5074350;28;20225;-61
2022/03/17 01:49:27;;;;;;;27.13;17.77;;;11.30;99.90;;;;;;5073223;28;20725;-61
2022/03/17 01:51:55;;;;;;;23.60;16.47;;;11.30;99.90;;;;;;5073337;28;20225;-61
2022/03/17 01:54:24;;;;;;;26.00;16.97;;;11.30;99.90;;;;;;5071698;28;20605;-62
2022/03/17 01:56:52;;;;;;;25.67;17.03;;;11.30;99.90;;;;;;5072769;28;20262;-63
2022/03/17 01:59:21;;;;;;;25.60;16.93;;;11.30;99.90;;;;;;5073032;28;20213;-61
2022/03/17 02:01:48;;;;;;;27.33;17.30;;;11.30;99.90;;;;;;5073302;28;20208;-61
2022/03/17 02:04:15;;;;;;;27.13;18.17;;;11.30;99.90;;;;;;5073185;28;20282;-61
2022/03/17 02:06:42;;;;;;;22.07;16.30;;;11.30;99.90;;;;;;5072777;28;20261;-60
2022/03/17 02:09:10;;;;;;;24.07;17.13;;;11.30;99.90;;;;;;5072697;28;20213;-60
2022/03/17 02:14:22;;;;;;;25.80;18.43;;;11.30;99.90;;;;;;5071223;28;20216;-61
2022/03/17 02:16:49;;;;;;;25.07;17.37;;;11.30;99.90;;;;;;5072460;28;20200;-61
2022/03/17 02:19:16;;;;;;;26.00;18.53;;;11.30;99.90;;;;;;5072742;28;20201;-61
2022/03/17 02:21:44;;;;;;;25.20;17.40;;;11.20;99.90;;;;;;5072374;28;20235;-61
2022/03/17 02:26:58;;;;;;;28.20;17.53;;;11.20;99.90;;;;;;5072241;28;20319;-61
2022/03/17 02:29:25;;;;;;;24.60;17.43;;;11.20;99.90;;;;;;5072750;28;20295;-60
2022/03/17 02:31:52;;;;;;;26.50;17.73;;;11.20;99.90;;;;;;5070607;28;20229;-60
2022/03/17 02:34:19;;;;;;;28.57;17.43;;;11.20;99.90;;;;;;5072260;28;20717;-61
2022/03/17 02:36:47;;;;;;;24.53;16.57;;;11.20;99.90;;;;;;5071801;28;20213;-61
2022/03/17 02:39:16;;;;;;;25.37;17.07;;;11.20;99.90;;;;;;5072266;28;20231;-61
2022/03/17 02:41:42;;;;;;;26.43;17.47;;;11.10;99.90;;;;;;5072141;28;20231;-61
2022/03/17 02:44:09;;;;;;;31.27;18.10;;;11.10;99.90;;;;;;5072271;28;20965;-61
2022/03/17 02:46:36;;;;;;;28.57;18.43;;;11.10;99.90;;;;;;5071935;28;20204;-61
2022/03/17 02:49:03;;;;;;;28.43;19.27;;;11.10;99.90;;;;;;5071918;28;20219;-61
2022/03/17 02:51:30;;;;;;;25.80;17.17;;;11.00;99.90;;;;;;5069529;28;20225;-61
2022/03/17 02:53:57;;;;;;;26.93;17.43;;;11.10;99.90;;;;;;5072388;28;20709;-61
2022/03/17 02:56:26;;;;;;;27.97;18.27;;;11.00;99.90;;;;;;5071795;28;20208;-61
2022/03/17 02:58:53;;;;;;;33.43;18.63;;;11.10;99.90;;;;;;5071686;28;20258;-61
2022/03/17 03:01:20;;;;;;;26.50;17.30;;;11.00;99.90;;;;;;5072234;28;20246;-61
2022/03/17 03:03:46;;;;;;;27.37;17.87;;;11.00;99.90;;;;;;5071375;28;20277;-61
2022/03/17 03:06:14;;;;;;;26.20;17.60;;;11.00;99.90;;;;;;5071827;28;20213;-62
2022/03/17 03:08:41;;;;;;;26.77;18.33;;;11.00;99.90;;;;;;5072155;28;20227;-61
2022/03/17 03:11:08;;;;;;;26.07;17.70;;;11.10;99.90;;;;;;5069317;28;20707;-60
2022/03/17 03:13:36;;;;;;;28.43;18.57;;;11.10;99.90;;;;;;5071792;28;20216;-61
2022/03/17 03:16:03;;;;;;;27.63;18.03;;;11.10;99.90;;;;;;5071301;28;20753;-61
2022/03/17 03:18:30;;;;;;;26.10;17.50;;;11.10;99.90;;;;;;5071469;28;20212;-61
2022/03/17 03:20:56;;;;;;;26.83;18.53;;;11.10;99.90;;;;;;5071692;28;20212;-61
2022/03/17 03:23:23;;;;;;;24.57;17.67;;;11.10;99.90;;;;;;5071121;28;20254;-61
2022/03/17 03:25:50;;;;;;;26.63;17.60;;;11.10;99.90;;;;;;5071691;28;20211;-61
2022/03/17 03:28:16;;;;;;;25.27;17.57;;;11.00;99.90;;;;;;5071748;28;20215;-60
2022/03/17 03:30:45;;;;;;;25.93;18.37;;;11.00;99.90;;;;;;5071327;28;20235;-61
2022/03/17 03:33:11;;;;;;;28.67;19.07;;;11.00;99.90;;;;;;5071074;28;20270;-61
2022/03/17 03:38:22;;;;;;;27.87;17.37;;;11.00;99.90;;;;;;5071241;28;20303;-61
2022/03/17 03:40:49;;;;;;;26.27;17.90;;;11.00;99.90;;;;;;5071235;28;20211;-60
2022/03/17 03:43:16;;;;;;;28.07;17.87;;;11.00;99.90;;;;;;5071622;28;20254;-61
2022/03/17 03:45:42;;;;;;;27.20;19.13;;;10.90;1.00;;;;;;5071538;28;20235;-61
2022/03/17 03:48:10;;;;;;;28.53;17.70;;;10.90;1.00;;;;;;5071117;28;20714;-61
2022/03/17 03:50:38;;;;;;;29.53;19.23;;;10.90;1.00;;;;;;5071585;28;20205;-61
2022/03/17 03:53:05;;;;;;;27.83;18.30;;;10.90;1.00;;;;;;5071272;28;20291;-61
2022/03/17 03:55:31;;;;;;;27.50;17.60;;;10.90;1.00;;;;;;5071250;28;20225;-60
2022/03/17 03:57:59;;;;;;;27.87;18.30;;;10.90;1.00;;;;;;5070996;28;20212;-61
2022/03/17 04:00:32;;;;;;;28.57;19.03;;;10.90;1.00;;;;;;5071565;28;20650;-61
2022/03/17 04:03:03;;;;;;;26.57;17.37;;;10.80;1.00;;;;;;5075097;28;20303;-60
2022/03/17 04:05:31;;;;;;;27.90;17.97;;;10.80;1.00;;;;;;5075166;28;20307;-60
2022/03/17 04:07:58;;;;;;;28.20;17.67;;;10.80;1.00;;;;;;5074953;28;20223;-60
2022/03/17 04:10:25;;;;;;;27.60;18.73;;;10.80;1.00;;;;;;5075222;28;20648;-61
2022/03/17 04:12:51;;;;;;;28.30;18.57;;;10.80;1.00;;;;;;5074591;28;20303;-60
2022/03/17 04:15:18;;;;;;;28.43;18.50;;;10.80;1.00;;;;;;5075529;28;20231;-61
2022/03/17 04:17:45;;;;;;;28.07;18.27;;;10.80;1.00;;;;;;5074879;28;20209;-61
2022/03/17 04:20:12;;;;;;;27.33;17.90;;;10.80;1.00;;;;;;5074898;28;20550;-60
2022/03/17 04:22:40;;;;;;;27.17;18.63;;;10.80;1.00;;;;;;5074782;28;20207;-61
2022/03/17 04:25:08;;;;;;;30.50;19.47;;;10.90;1.00;;;;;;5074715;28;20236;-61
2022/03/17 04:27:35;;;;;;;30.50;20.03;;;10.90;1.00;;;;;;5074456;28;20208;-61
2022/03/17 04:30:01;;;;;;;29.00;19.77;;;10.80;1.00;;;;;;5075079;28;20257;-61
2022/03/17 04:32:28;;;;;;;28.87;19.07;;;10.80;1.00;;;;;;5074253;28;20231;-60
2022/03/17 04:34:55;;;;;;;27.90;19.63;;;10.80;1.00;;;;;;5074639;28;20224;-60
2022/03/17 04:37:21;;;;;;;29.57;18.87;;;10.80;1.00;;;;;;5074547;28;20212;-61
2022/03/17 04:39:49;;;;;;;28.53;19.43;;;10.80;4.30;;;;;;5074363;28;20203;-60
2022/03/17 04:42:16;;;;;;;29.40;18.87;;;10.80;48.30;;;;;;5074018;28;20694;-61
2022/03/17 04:44:43;;;;;;;29.27;20.23;;;10.80;85.90;;;;;;5074177;28;20721;-60
2022/03/17 04:47:09;;;;;;;27.90;19.13;;;10.70;99.90;;;;;;5074248;28;20200;-60
2022/03/17 04:49:36;;;;;;;32.53;20.00;;;10.80;99.90;;;;;;5074278;28;20224;-61
2022/03/17 04:53:26;;;;;;;32.80;19.63;;;10.80;99.90;;;;;;5073891;28;20225;-60
2022/03/17 04:54:51;;;;;;;27.97;18.70;;;10.70;99.90;;;;;;5074111;28;20228;-60
2022/03/17 04:57:18;;;;;;;29.53;19.30;;;10.70;99.90;;;;;;5073947;28;20203;-60
2022/03/17 04:59:44;;;;;;;30.70;19.37;;;10.70;99.90;;;;;;5074247;28;20207;-60
2022/03/17 05:02:13;;;;;;;31.33;19.33;;;10.70;99.90;;;;;;5073877;28;20248;-60
2022/03/17 05:04:39;;;;;;;30.20;20.20;;;10.70;99.90;;;;;;5073849;28;20259;-61
2022/03/17 05:07:06;;;;;;;29.77;20.47;;;10.70;99.90;;;;;;5074198;28;20214;-61
2022/03/17 05:09:33;;;;;;;31.03;20.20;;;10.60;1.00;;;;;;5074041;28;20606;-60
2022/03/17 05:12:01;;;;;;;32.23;20.63;;;10.60;1.00;;;;;;5073097;28;20732;-61
2022/03/17 05:14:27;;;;;;;33.23;21.43;;;10.50;1.00;;;;;;5073939;28;20228;-61
2022/03/17 05:16:54;;;;;;;33.70;22.20;;;10.50;52.20;;;;;;5073539;28;20212;-61
2022/03/17 05:19:20;;;;;;;34.23;21.23;;;10.60;99.90;;;;;;5073614;28;20211;-61
2022/03/17 05:21:47;;;;;;;32.27;21.33;;;10.50;1.00;;;;;;5073577;28;20259;-60
2022/03/17 05:24:14;;;;;;;39.67;21.83;;;10.40;99.90;;;;;;5074202;28;20235;-61
2022/03/17 05:26:41;;;;;;;36.60;22.57;;;10.20;1.00;;;;;;5073471;28;20276;-61
2022/03/17 05:29:09;;;;;;;36.93;22.37;;;10.10;18.10;;;;;;5071556;28;20211;-61
2022/03/17 05:31:36;;;;;;;36.37;22.77;;;10.00;1.00;;;;;;5073462;28;20232;-61
2022/03/17 05:34:02;;;;;;;38.30;24.17;;;9.90;99.90;;;;;;5073364;28;20235;-61
2022/03/17 05:36:29;;;;;;;37.27;22.63;;;9.80;99.90;;;;;;5073404;28;20203;-61
2022/03/17 05:38:59;;;;;;;35.70;23.43;;;9.90;1.00;;;;;;5072549;28;20299;-61
2022/03/17 05:41:26;;;;;;;38.93;24.97;;;9.80;99.90;;;;;;5071761;28;20209;-61
2022/03/17 05:43:53;;;;;;;39.77;24.20;;;9.60;99.90;;;;;;5073037;28;20566;-62
2022/03/17 05:46:25;;;;;;;40.97;24.73;;;9.60;1.00;;;;;;5071380;28;20207;-62
2022/03/17 05:48:51;;;;;;;;;;;9.50;1.00;;;;;;5073798;28;20143;-61
2022/03/17 05:51:18;;;;;;;53.28;35.15;;;9.50;1.00;;;;;;5071922;28;20417;-61
2022/03/17 05:53:44;;;;;;;;;;;9.50;29.30;;;;;;5073036;28;20048;-62
2022/03/17 05:56:11;;;;;;;;;;;9.50;44.50;;;;;;5073195;28;19927;-62
2022/03/17 05:58:37;;;;;;;;;;;9.50;58.80;;;;;;5073414;28;19966;-62
2022/03/17 06:01:04;;;;;;;;;;;9.50;70.60;;;;;;5072846;28;19966;-60
2022/03/17 06:03:32;;;;;;;;;;;9.50;85.50;;;;;;5074086;28;19924;-62
2022/03/17 06:05:59;;;;;;;57.95;37.08;;;9.40;99.90;;;;;;5069193;28;20420;-62
2022/03/17 06:08:27;;;;;;;49.07;29.73;;;9.30;99.90;;;;;;5072777;28;20267;-60
2022/03/17 06:10:54;;;;;;;49.43;28.83;;;9.30;99.90;;;;;;5072689;28;20336;-63
2022/03/17 06:13:20;;;;;;;46.57;27.17;;;9.10;99.90;;;;;;5072296;28;20646;-60
2022/03/17 06:15:47;;;;;;;45.63;27.90;;;9.10;99.90;;;;;;5072564;28;20229;-62
2022/03/17 06:18:14;;;;;;;51.57;28.00;;;9.00;99.90;;;;;;5072970;28;20774;-60
2022/03/17 06:20:42;;;;;;;44.93;27.17;;;9.00;99.90;;;;;;5068270;28;20211;-63
2022/03/17 06:23:08;;;;;;;;;;;9.10;99.90;;;;;;5075685;28;20491;-64
2022/03/17 06:25:36;;;;;;;;;;;9.10;99.90;;;;;;5071120;28;19920;-63
2022/03/17 06:28:04;;;;;;;;;;;9.10;99.90;;;;;;5072110;28;19921;-64
2022/03/17 06:30:31;;;;;;;;;;;9.10;99.90;;;;;;5072048;28;19921;-64
2022/03/17 06:32:58;;;;;;;;;;;9.20;99.90;;;;;;5072031;28;19920;-63
2022/03/17 06:35:25;;;;;;;;;;;9.20;99.90;;;;;;5072524;28;19920;-63
2022/03/17 06:37:54;;;;;;;;;;;9.10;99.90;;;;;;5072023;28;19924;-63
2022/03/17 06:40:22;;;;;;;33.60;21.50;;;9.20;99.90;;;;;;5071389;28;20633;-63
2022/03/17 06:42:49;;;;;;;;;;;9.10;99.90;;;;;;5072469;28;20086;-64
2022/03/17 06:45:16;;;;;;;;;;;9.20;99.90;;;;;;5069978;28;19920;-63
2022/03/17 06:47:43;;;;;;;;;;;9.20;99.90;;;;;;5071936;28;20417;-66
2022/03/17 06:50:11;;;;;;;;;;;9.10;99.90;;;;;;5071819;28;19924;-62
2022/03/17 06:52:37;;;;;;;;;;;9.10;99.90;;;;;;5071782;28;19924;-61
2022/03/17 06:55:06;;;;;;;;;;;9.10;99.90;;;;;;5071936;28;19932;-63
2022/03/17 06:57:32;;;;;;;23.33;15.73;;;9.10;99.90;;;;;;5071433;28;20682;-64
2022/03/17 06:59:59;;;;;;;22.83;15.33;;;9.10;99.90;;;;;;5070997;28;20209;-65
2022/03/17 07:02:26;;;;;;;34.20;23.40;;;9.10;99.90;;;;;;5070483;28;20411;-63
2022/03/17 07:04:52;;;;;;;32.33;19.30;;;9.00;99.90;;;;;;5068874;28;20883;-64
2022/03/17 07:07:19;;;;;;;29.47;16.27;;;8.80;99.90;;;;;;5071701;28;20218;-63
2022/03/17 07:09:46;;;;;;;33.30;17.37;;;8.80;99.90;;;;;;5070839;28;20740;-63
2022/03/17 07:12:13;;;;;;;;;;;8.70;99.90;;;;;;5071514;28;20048;-64
2022/03/17 07:14:40;;;;;;;25.90;15.73;;;8.70;99.90;;;;;;5071449;28;20264;-63
2022/03/17 07:17:07;;;;;;;33.17;18.73;;;8.50;99.90;;;;;;5071192;28;20266;-65
2022/03/17 07:19:35;;;;;;;;;;;8.40;99.90;;;;;;5071171;28;20461;-64
2022/03/17 07:22:01;;;;;;;;;;;8.40;99.90;;;;;;5072652;28;19966;-65
2022/03/17 07:24:28;;;;;;;;;;;8.40;99.90;;;;;;5071071;28;19935;-64
2022/03/17 07:26:54;;;;;;;;;;;8.40;99.90;;;;;;5071159;28;20390;-64
2022/03/17 07:29:22;;;;;;;;;;;8.40;99.90;;;;;;5071887;28;19927;-64
2022/03/17 07:31:49;;;;;;;21.63;13.43;;;8.30;99.90;;;;;;5070716;28;20211;-64
2022/03/17 07:34:16;;;;;;;26.10;13.93;;;8.30;99.90;;;;;;5070917;28;20225;-64
2022/03/17 07:36:44;;;;;;;;;;;8.20;99.90;;;;;;5071205;28;20059;-63
2022/03/17 07:39:10;;;;;;;;;;;8.20;99.90;;;;;;5070933;28;19986;-64
2022/03/17 07:41:37;;;;;;;;;;;8.20;99.90;;;;;;5072016;28;19924;-64
2022/03/17 07:44:04;;;;;;;20.73;12.47;;;8.10;99.90;;;;;;5069146;28;20211;-64
2022/03/17 07:46:32;;;;;;;21.80;12.73;;;8.10;99.90;;;;;;5070715;28;20254;-63
2022/03/17 07:48:58;;;;;;;21.60;13.60;;;8.10;99.90;;;;;;5070659;28;20267;-63
2022/03/17 07:51:25;;;;;;;19.97;12.63;;;8.00;99.90;;;;;;5069902;28;20201;-63
2022/03/17 07:53:52;;;;;;;17.47;11.40;;;8.00;99.90;;;;;;5070893;28;20232;-64
2022/03/17 07:56:20;;;;;;;16.93;11.00;;;7.90;99.90;;;;;;5070472;28;20839;-63
2022/03/17 07:58:47;;;;;;;17.50;10.27;;;7.80;99.90;;;;;;5070240;28;20239;-63
2022/03/17 08:01:14;;;;;;;18.47;11.10;;;7.70;99.90;;;;;;5071099;28;20209;-63
2022/03/17 08:03:42;;;;;;;19.17;11.70;;;7.70;99.90;;;;;;5068677;28;20216;-63
2022/03/17 08:06:10;;;;;;;;;;;7.70;99.90;;;;;;5070883;28;20055;-63
2022/03/17 08:08:37;;;;;;;;;;;7.70;99.90;;;;;;5071412;28;20382;-62
2022/03/17 08:11:03;;;;;;;;;;;7.60;99.90;;;;;;5070174;28;19966;-63
2022/03/17 08:13:30;;;;;;;;;;;7.60;99.90;;;;;;5071477;28;19924;-63
2022/03/17 08:15:57;;;;;;;;;;;7.60;99.90;;;;;;5070802;28;20329;-62
2022/03/17 08:18:24;;;;;;;12.80;7.50;;;7.60;99.90;;;;;;5070246;28;20218;-62
2022/03/17 08:20:52;;;;;;;14.73;7.40;;;7.50;99.90;;;;;;5070580;28;20296;-63
2022/03/17 08:23:21;;;;;;;17.43;8.20;;;7.50;99.90;;;;;;5069954;28;20211;-62
2022/03/17 08:25:49;;;;;;;15.88;10.15;;;7.60;99.90;;;;;;5056866;28;20451;-61
2022/03/17 08:28:18;;;;;;;15.20;7.80;;;7.60;99.90;;;;;;5069843;28;20262;-63
2022/03/17 08:30:46;;;;;;;11.40;6.43;;;7.70;99.90;;;;;;5070015;28;20286;-62
2022/03/17 08:33:14;;;;;;;16.27;6.70;;;7.80;99.90;;;;;;5070269;28;20347;-62
2022/03/17 08:35:40;;;;;;;;;;;7.80;99.90;;;;;;5070677;28;20086;-64
2022/03/17 08:38:08;;;;;;;11.77;5.50;;;7.90;99.90;;;;;;5070075;28;20245;-64
2022/03/17 08:40:38;;;;;;;9.10;5.03;;;8.00;99.90;;;;;;5068898;28;20453;-63
2022/03/17 08:43:05;;;;;;;10.40;4.17;;;7.90;99.90;;;;;;5070216;28;20208;-63
2022/03/17 08:51:00;;;;;;;4.50;3.00;;;7.90;99.90;;;;;;5073500;28;20266;-63
2022/03/17 08:53:28;;;;;;;6.00;2.93;;;7.80;99.90;;;;;;5073499;28;20221;-64
2022/03/17 08:55:54;;;;;;;6.03;2.80;;;7.80;99.90;;;;;;5073011;28;20212;-65
2022/03/17 08:58:23;;;;;;;5.80;3.10;;;7.80;99.90;;;;;;5073092;28;20209;-65
2022/03/17 09:00:49;;;;;;;6.10;3.20;;;7.80;99.90;;;;;;5073209;28;20683;-64
2022/03/17 09:03:16;;;;;;;6.03;3.17;;;7.80;99.90;;;;;;5073754;28;20205;-63
2022/03/17 09:05:43;;;;;;;;;;;7.90;99.90;;;;;;5073867;28;20477;-63
2022/03/17 09:08:10;;;;;;;3.87;2.93;;;7.90;99.90;;;;;;5073276;28;20218;-63
2022/03/17 09:10:39;;;;;;;5.17;3.63;;;7.80;99.90;;;;;;5072823;28;20255;-65
2022/03/17 09:13:07;;;;;;;8.67;3.50;;;7.70;99.90;;;;;;5071376;28;20333;-64
2022/03/17 09:15:35;;;;;;;8.07;3.50;;;7.80;99.90;;;;;;5073366;28;20237;-64
2022/03/17 09:18:02;;;;;;;5.37;3.50;;;7.80;99.90;;;;;;5072592;28;20200;-63
2022/03/17 09:20:29;;;;;;;7.13;2.83;;;7.90;99.90;;;;;;5073029;28;20303;-63
2022/03/17 09:22:56;;;;;;;7.10;3.95;;;7.90;99.90;;;;;;5071734;28;20922;-63
2022/03/17 09:25:25;;;;;;;9.40;4.07;;;7.90;99.90;;;;;;5072609;28;20232;-64
2022/03/17 09:27:53;;;;;;;7.03;3.37;;;8.00;99.90;;;;;;5073129;28;20301;-64
2022/03/17 09:30:21;;;;;;;6.90;3.20;;;8.10;99.90;;;;;;5069208;28;20201;-62
2022/03/17 09:32:47;;;;;;;6.70;3.20;;;8.10;99.90;;;;;;5073002;28;20220;-63
2022/03/17 09:35:15;;;;;;;9.23;3.67;;;8.10;99.90;;;;;;5073080;28;20733;-64
2022/03/17 09:37:42;;;;;;;5.13;2.63;;;8.10;99.90;;;;;;5072017;28;20732;-64
2022/03/17 09:40:10;;;;;;;8.77;3.60;;;8.20;99.90;;;;;;5072909;28;20258;-64
2022/03/17 09:42:38;;;;;;;7.93;3.13;;;8.10;99.90;;;;;;5073124;28;20251;-65
2022/03/17 09:45:08;;;;;;;11.63;3.33;;;8.10;99.90;;;;;;5072808;28;20294;-64
2022/03/17 09:47:37;;;;;;;6.82;4.20;;;8.00;99.90;;;;;;5071339;28;21192;-62
2022/03/17 09:50:07;;;;;;;8.97;4.27;;;8.10;99.90;;;;;;5072472;28;20424;-62
2022/03/17 09:52:35;;;;;;;7.78;5.13;;;8.10;99.90;;;;;;5071431;28;20412;-64
2022/03/17 09:55:02;;;;;;;9.60;4.50;;;8.20;99.90;;;;;;5072726;28;20236;-64
2022/03/17 09:57:29;;;;;;;8.40;4.20;;;8.20;99.90;;;;;;5071504;28;20250;-62
2022/03/17 09:59:56;;;;;;;9.37;4.43;;;8.20;99.90;;;;;;5072375;28;20216;-61
2022/03/17 10:02:25;;;;;;;9.03;4.10;;;8.30;99.90;;;;;;5072299;28;20201;-62
2022/03/17 10:04:53;;;;;;;8.43;4.88;;;8.30;99.90;;;;;;5070574;28;20415;-62
2022/03/17 10:07:21;;;;;;;9.20;4.33;;;8.30;99.90;;;;;;5072102;28;20231;-64
2022/03/17 10:09:49;;;;;;;12.53;4.10;;;8.30;99.90;;;;;;5068677;28;20288;-63
2022/03/17 10:12:20;;;;;;;9.43;3.77;;;8.30;99.90;;;;;;5071934;28;20216;-62
2022/03/17 10:14:48;;;;;;;6.87;3.53;;;8.20;99.90;;;;;;5072160;28;20236;-62
2022/03/17 10:17:34;;;;;;;12.05;4.72;;;8.10;99.90;;;;;;5070021;28;20431;-61
2022/03/17 10:20:15;;;;;;;10.50;3.90;;;8.10;99.90;;;;;;5072256;28;20556;-62
2022/03/17 10:22:44;;;;;;;10.67;3.97;;;8.20;99.90;;;;;;5071878;28;20263;-61
2022/03/17 10:25:13;;;;;;;10.83;4.40;;;8.20;99.90;;;;;;5071920;28;20232;-61
2022/03/17 10:27:41;;;;;;;7.27;3.33;;;8.00;99.90;;;;;;5071510;28;20209;-63
2022/03/17 10:30:09;;;;;;;8.53;3.20;;;7.90;99.90;;;;;;5071193;28;20209;-62
2022/03/17 10:32:37;;;;;;;7.33;3.17;;;7.90;99.90;;;;;;5072035;28;20212;-61
2022/03/17 10:35:08;;;;;;;7.53;2.53;;;7.90;99.50;;;;;;5073586;28;20282;-62
2022/03/17 10:37:37;;;;;;;5.63;2.83;;;8.00;95.20;;;;;;5074415;28;20205;-61
2022/03/17 10:40:10;;;;;;;9.10;2.50;;;8.10;92.30;;;;;;5071573;28;20209;-61
2022/03/17 10:42:37;;;;;;;6.97;2.70;;;8.20;89.10;;;;;;5071506;28;20299;-61
2022/03/17 10:45:07;;;;;;;8.60;2.67;;;8.20;92.70;;;;;;5071959;28;20221;-65
2022/03/17 10:47:36;;;;;;;7.23;3.03;;;8.40;72.70;;;;;;5072590;28;20201;-64
2022/03/17 10:50:13;;;;;;;7.40;3.00;;;8.50;57.70;;;;;;5074385;28;20267;-61
2022/03/17 10:52:48;;;;;;;7.97;4.13;;;8.60;46.80;;;;;;5071878;28;20427;-61
2022/03/17 10:55:19;;;;;;;8.93;3.90;;;8.60;99.90;;;;;;5071968;28;20233;-62
2022/03/17 10:57:45;;;;;;;3.77;2.37;;;8.60;99.90;;;;;;5071026;28;20212;-62
2022/03/17 11:00:20;;;;;;;6.50;3.27;;;8.60;80.30;;;;;;5071287;28;20262;-63
2022/03/17 11:02:49;;;;;;;10.67;2.97;;;8.70;99.90;;;;;;5070679;28;20690;-63
2022/03/17 11:05:18;;;;;;;8.70;2.93;;;8.70;1.00;;;;;;5070793;28;20225;-63
2022/03/17 11:07:46;;;;;;;6.57;3.03;;;8.70;99.90;;;;;;5071087;28;20398;-66
2022/03/17 11:10:15;;;;;;;5.53;3.30;;;8.80;1.00;;;;;;5070115;28;20237;-63
2022/03/17 11:12:43;;;;;;;7.53;2.60;;;8.80;99.90;;;;;;5071157;28;20300;-62
2022/03/17 11:15:10;;;;;;;4.90;2.07;;;8.90;1.00;;;;;;5070911;28;20228;-63
2022/03/17 11:17:40;;;;;;;4.13;1.73;;;9.00;99.90;;;;;;5070575;28;20205;-63
2022/03/17 11:20:09;;;;;;;8.67;1.63;;;9.00;99.90;;;;;;5071242;28;20201;-63
2022/03/17 11:22:37;;;;;;;6.57;2.80;;;9.10;99.90;;;;;;5069456;28;20469;-61
2022/03/17 11:25:23;;;;;;;6.33;2.07;;;9.00;1.00;;;;;;5070866;28;20237;-63
2022/03/17 11:27:51;;;;;;;5.50;1.50;;;9.10;99.90;;;;;;5070317;28;20225;-62
2022/03/17 11:30:18;;;;;;;6.57;1.60;;;9.10;1.00;;;;;;5070481;28;20286;-63
2022/03/17 11:32:54;;;;;;;;;;;9.10;91.60;;;;;;5071554;28;20087;-62
2022/03/17 11:35:29;;;;;;;6.80;2.53;;;9.20;99.90;;;;;;5069486;28;20944;-66
2022/03/17 11:38:18;;;;;;;6.03;2.30;;;9.40;20.90;;;;;;5071325;28;20219;-65
2022/03/17 11:41:05;;;;;;;4.97;2.47;;;9.40;1.00;;;;;;5069962;28;20201;-65
2022/03/17 11:43:57;;;;;;;5.80;2.43;;;9.30;1.00;;;;;;5071538;28;20705;-63
2022/03/17 11:46:35;;;;;;;5.60;2.60;;;9.40;1.00;;;;;;5069192;28;20495;-63
2022/03/17 11:49:18;;;;;;;6.07;2.07;;;9.70;1.00;;;;;;5070196;28;20831;-62
2022/03/17 11:51:53;;;;;;;7.60;2.30;;;9.70;99.90;;;;;;5070684;28;20283;-65
2022/03/17 11:54:21;;;;;;;5.23;2.03;;;9.70;99.90;;;;;;5070432;28;20229;-65
2022/03/17 11:56:53;;;;;;;7.30;2.43;;;9.50;99.90;;;;;;5070132;28;20210;-63
2022/03/17 11:59:22;;;;;;;5.57;2.33;;;9.30;99.90;;;;;;5070264;28;20214;-63
2022/03/17 12:01:49;;;;;;;7.47;2.03;;;9.30;99.90;;;;;;5069894;28;20216;-64
2022/03/17 12:04:28;;;;;;;4.37;1.80;;;9.30;1.00;;;;;;5071000;28;20225;-63
2022/03/17 12:07:06;;;;;;;6.83;2.10;;;9.20;99.90;;;;;;5071205;28;20209;-63
2022/03/17 12:09:36;;;;;;;5.80;1.83;;;9.20;99.90;;;;;;5070933;28;20262;-64
2022/03/17 12:12:16;;;;;;;4.43;1.80;;;9.20;99.90;;;;;;5070612;28;20932;-64
2022/03/17 12:14:49;;;;;;;6.10;1.97;;;9.20;99.90;;;;;;5070957;28;20278;-64
2022/03/17 12:17:18;;;;;;;6.73;1.73;;;9.30;1.00;;;;;;5070427;28;20303;-63
2022/03/17 12:19:49;;;;;;;5.67;1.60;;;9.50;99.90;;;;;;5070087;28;20217;-63
2022/03/17 12:22:19;;;;;;;3.90;1.70;;;9.60;73.90;;;;;;5072515;28;20292;-62
2022/03/17 12:24:49;;;;;;;8.67;1.67;;;9.70;1.00;;;;;;5074801;28;20234;-66
2022/03/17 12:27:20;;;;;;;4.43;1.83;;;9.80;1.00;;;;;;5074166;28;20212;-65
2022/03/17 12:29:50;;;;;;;7.17;1.97;;;9.80;1.00;;;;;;5074461;28;20263;-64
2022/03/17 12:32:19;;;;;;;5.90;1.93;;;9.80;1.00;;;;;;5074500;28;20288;-64
2022/03/17 12:34:47;;;;;;;3.77;2.20;;;9.70;99.90;;;;;;5074333;28;20370;-65
2022/03/17 12:37:14;;;;;;;6.00;1.27;;;9.70;99.90;;;;;;5073676;28;20218;-67
2022/03/17 12:39:41;;;;;;;4.23;1.70;;;9.70;99.90;;;;;;5073739;28;20232;-67
2022/03/17 12:42:18;;;;;;;6.20;1.97;;;9.70;99.90;;;;;;5074259;28;20618;-66
2022/03/17 12:45:04;;;;;;;6.27;2.27;;;9.80;99.90;;;;;;5073971;28;20222;-66
2022/03/17 12:47:33;;;;;;;9.40;2.10;;;9.80;99.90;;;;;;5073495;28;20211;-63
2022/03/17 12:50:01;;;;;;;8.50;2.70;;;9.60;99.90;;;;;;5073988;28;20223;-63
2022/03/17 12:52:30;;;;;;;8.50;2.20;;;9.70;99.90;;;;;;5073957;28;20205;-63
2022/03/17 12:54:58;;;;;;;5.07;2.13;;;9.70;99.90;;;;;;5074176;28;20234;-64
2022/03/17 12:57:28;;;;;;;7.53;2.00;;;9.70;99.90;;;;;;5073264;28;20209;-64
2022/03/17 12:59:54;;;;;;;7.40;2.00;;;9.70;99.90;;;;;;5073612;28;20217;-64
2022/03/17 13:02:22;;;;;;;6.73;2.17;;;9.60;99.90;;;;;;5074064;28;20206;-63
2022/03/17 13:04:50;;;;;;;6.47;2.13;;;9.70;99.90;;;;;;5073918;28;20308;-64
2022/03/17 13:07:17;;;;;;;9.40;2.03;;;9.60;99.90;;;;;;5073689;28;20213;-63
2022/03/17 13:09:45;;;;;;;8.03;2.37;;;9.70;99.90;;;;;;5073336;28;20611;-63
2022/03/17 13:14:59;;;;;;;7.37;1.87;;;9.60;99.90;;;;;;5073623;28;20304;-64
2022/03/17 13:17:36;;;;;;;7.77;2.20;;;9.60;99.90;;;;;;5073221;28;20215;-64
2022/03/17 13:20:04;;;;;;;5.63;2.20;;;9.60;1.00;;;;;;5073517;28;20694;-62